sensor_id;sensor_type;location;lat;lon;timestamp;pressure;altitude;pressure_sealevel;temperature;humidity
24956;BME280;12988;42.710;23.390;2023-01-26T00:01:40;96034.19;;;24.94;34.65
24956;BME280;12988;42.710;23.390;2023-01-26T00:04:07;96021.84;;;24.89;34.82
24956;BME280;12988;42.710;23.390;2023-01-26T00:06:33;96025.28;;;24.93;34.74
24956;BME280;12988;42.710;23.390;2023-01-26T00:08:58;96032.66;;;24.93;34.55
24956;BME280;12988;42.710;23.390;2023-01-26T00:11:25;96038.00;;;25.00;34.84
24956;BME280;12988;42.710;23.390;2023-01-26T00:13:52;96037.63;;;24.98;34.73
24956;BME280;12988;42.710;23.390;2023-01-26T00:16:18;96032.22;;;24.94;34.70
24956;BME280;12988;42.710;23.390;2023-01-26T00:18:44;96031.44;;;24.97;34.69
24956;BME280;12988;42.710;23.390;2023-01-26T00:21:18;96038.00;;;24.96;34.72
24956;BME280;12988;42.710;23.390;2023-01-26T00:23:45;96044.19;;;24.97;34.83
24956;BME280;12988;42.710;23.390;2023-01-26T00:26:17;96044.59;;;24.95;34.53
24956;BME280;12988;42.710;23.390;2023-01-26T00:28:42;96045.75;;;24.94;34.69
24956;BME280;12988;42.710;23.390;2023-01-26T00:31:27;96039.22;;;24.92;34.60
24956;BME280;12988;42.710;23.390;2023-01-26T00:33:53;96024.53;;;24.89;35.02
24956;BME280;12988;42.710;23.390;2023-01-26T00:36:19;96019.50;;;24.91;34.27
24956;BME280;12988;42.710;23.390;2023-01-26T00:38:45;96019.09;;;24.96;34.68
24956;BME280;12988;42.710;23.390;2023-01-26T00:41:11;95998.66;;;24.92;34.46
24956;BME280;12988;42.710;23.390;2023-01-26T00:43:56;96005.56;;;24.96;34.56
24956;BME280;12988;42.710;23.390;2023-01-26T00:46:21;96010.19;;;24.99;34.12
24956;BME280;12988;42.710;23.390;2023-01-26T00:48:46;96004.41;;;24.97;34.69
24956;BME280;12988;42.710;23.390;2023-01-26T00:51:12;96003.22;;;24.98;34.84
24956;BME280;12988;42.710;23.390;2023-01-26T00:53:37;95996.34;;;24.94;34.37
24956;BME280;12988;42.710;23.390;2023-01-26T00:56:02;96004.38;;;25.01;34.33
24956;BME280;12988;42.710;23.390;2023-01-26T00:58:28;95992.03;;;25.00;34.26
24956;BME280;12988;42.710;23.390;2023-01-26T01:00:53;95995.09;;;25.02;34.07
24956;BME280;12988;42.710;23.390;2023-01-26T01:03:19;95991.25;;;24.99;34.04
24956;BME280;12988;42.710;23.390;2023-01-26T01:05:44;95988.19;;;24.97;34.21
24956;BME280;12988;42.710;23.390;2023-01-26T01:08:09;95988.53;;;24.99;34.47
24956;BME280;12988;42.710;23.390;2023-01-26T01:10:35;95975.41;;;25.01;34.57
24956;BME280;12988;42.710;23.390;2023-01-26T01:13:00;95968.88;;;24.99;34.45
24956;BME280;12988;42.710;23.390;2023-01-26T01:15:25;95978.91;;;24.98;33.83
24956;BME280;12988;42.710;23.390;2023-01-26T01:17:51;95984.31;;;24.98;34.35
24956;BME280;12988;42.710;23.390;2023-01-26T01:20:16;95983.94;;;24.96;33.99
24956;BME280;12988;42.710;23.390;2023-01-26T01:22:42;95986.63;;;24.96;34.31
24956;BME280;12988;42.710;23.390;2023-01-26T01:25:08;95976.19;;;24.98;34.04
24956;BME280;12988;42.710;23.390;2023-01-26T01:27:33;95975.06;;;24.96;34.47
24956;BME280;12988;42.710;23.390;2023-01-26T01:29:58;95976.25;;;24.91;33.80
24956;BME280;12988;42.710;23.390;2023-01-26T01:32:24;95973.16;;;24.93;33.98
24956;BME280;12988;42.710;23.390;2023-01-26T01:34:49;95965.06;;;24.89;33.79
24956;BME280;12988;42.710;23.390;2023-01-26T01:37:15;95971.63;;;24.92;33.88
24956;BME280;12988;42.710;23.390;2023-01-26T01:39:41;95980.09;;;24.94;34.12
24956;BME280;12988;42.710;23.390;2023-01-26T01:42:06;95973.53;;;24.95;34.24
24956;BME280;12988;42.710;23.390;2023-01-26T01:44:36;95976.25;;;24.95;34.13
24956;BME280;12988;42.710;23.390;2023-01-26T01:47:16;95961.56;;;24.96;33.79
24956;BME280;12988;42.710;23.390;2023-01-26T01:49:49;95974.28;;;24.95;33.91
24956;BME280;12988;42.710;23.390;2023-01-26T01:52:23;95970.41;;;24.96;34.06
24956;BME280;12988;42.710;23.390;2023-01-26T01:54:54;95966.53;;;24.97;33.89
24956;BME280;12988;42.710;23.390;2023-01-26T01:57:24;95963.09;;;24.93;33.93
24956;BME280;12988;42.710;23.390;2023-01-26T02:00:03;95972.75;;;24.98;33.82
24956;BME280;12988;42.710;23.390;2023-01-26T02:02:29;95958.84;;;24.96;33.93
24956;BME280;12988;42.710;23.390;2023-01-26T02:04:58;95961.13;;;24.97;33.59
24956;BME280;12988;42.710;23.390;2023-01-26T02:07:27;95946.91;;;24.90;33.84
24956;BME280;12988;42.710;23.390;2023-01-26T02:09:53;95948.41;;;24.94;33.87
24956;BME280;12988;42.710;23.390;2023-01-26T02:12:37;95946.09;;;24.96;34.05
24956;BME280;12988;42.710;23.390;2023-01-26T02:15:03;95948.06;;;24.92;33.91
24956;BME280;12988;42.710;23.390;2023-01-26T02:17:29;95942.28;;;24.90;33.63
24956;BME280;12988;42.710;23.390;2023-01-26T02:27:55;95924.09;;;24.94;33.36
24956;BME280;12988;42.710;23.390;2023-01-26T02:30:21;95909.03;;;24.93;33.44
24956;BME280;12988;42.710;23.390;2023-01-26T02:32:47;95908.59;;;24.98;33.80
24956;BME280;12988;42.710;23.390;2023-01-26T02:35:12;95905.53;;;24.96;33.70
24956;BME280;12988;42.710;23.390;2023-01-26T02:37:37;95898.22;;;24.93;33.68
24956;BME280;12988;42.710;23.390;2023-01-26T02:42:45;95900.53;;;24.95;33.70
24956;BME280;12988;42.710;23.390;2023-01-26T02:45:13;95908.59;;;24.98;33.39
24956;BME280;12988;42.710;23.390;2023-01-26T02:47:39;95904.72;;;24.99;33.62
24956;BME280;12988;42.710;23.390;2023-01-26T02:50:08;95900.84;;;25.00;33.48
24956;BME280;12988;42.710;23.390;2023-01-26T02:52:34;95895.88;;;24.99;33.72
24956;BME280;12988;42.710;23.390;2023-01-26T02:54:59;95884.25;;;24.98;33.29
24956;BME280;12988;42.710;23.390;2023-01-26T02:57:44;95892.00;;;25.00;33.16
24956;BME280;12988;42.710;23.390;2023-01-26T03:00:33;95885.44;;;24.97;33.20
24956;BME280;12988;42.710;23.390;2023-01-26T03:03:00;95878.91;;;24.95;33.34
24956;BME280;12988;42.710;23.390;2023-01-26T03:05:27;95869.69;;;24.89;33.19
24956;BME280;12988;42.710;23.390;2023-01-26T03:07:52;95865.81;;;24.90;33.15
24956;BME280;12988;42.710;23.390;2023-01-26T03:10:18;95874.31;;;24.92;33.56
24956;BME280;12988;42.710;23.390;2023-01-26T03:12:45;95870.81;;;24.91;33.47
24956;BME280;12988;42.710;23.390;2023-01-26T03:15:11;95875.41;;;24.94;33.08
24956;BME280;12988;42.710;23.390;2023-01-26T03:18:07;95864.97;;;24.96;33.16
24956;BME280;12988;42.710;23.390;2023-01-26T03:20:51;95866.50;;;24.97;33.34
24956;BME280;12988;42.710;23.390;2023-01-26T03:23:35;95861.53;;;24.92;33.34
24956;BME280;12988;42.710;23.390;2023-01-26T03:26:19;95849.59;;;24.90;33.47
24956;BME280;12988;42.710;23.390;2023-01-26T03:29:03;95851.50;;;24.93;33.14
24956;BME280;12988;42.710;23.390;2023-01-26T03:31:28;95844.50;;;24.95;33.31
24956;BME280;12988;42.710;23.390;2023-01-26T03:33:54;95844.13;;;24.97;32.74
24956;BME280;12988;42.710;23.390;2023-01-26T03:36:19;95834.47;;;24.96;32.87
24956;BME280;12988;42.710;23.390;2023-01-26T03:38:44;95841.06;;;24.95;33.06
24956;BME280;12988;42.710;23.390;2023-01-26T03:41:10;95835.66;;;24.95;33.00
24956;BME280;12988;42.710;23.390;2023-01-26T03:43:54;95838.34;;;24.95;33.01
24956;BME280;12988;42.710;23.390;2023-01-26T03:46:38;95835.28;;;24.93;33.54
24956;BME280;12988;42.710;23.390;2023-01-26T03:49:22;95838.38;;;24.91;33.01
24956;BME280;12988;42.710;23.390;2023-01-26T03:52:06;95837.22;;;24.89;33.29
24956;BME280;12988;42.710;23.390;2023-01-26T03:54:49;95828.38;;;24.88;33.03
24956;BME280;12988;42.710;23.390;2023-01-26T03:57:33;95823.34;;;24.87;32.90
24956;BME280;12988;42.710;23.390;2023-01-26T03:59:59;95817.56;;;24.88;32.88
24956;BME280;12988;42.710;23.390;2023-01-26T04:02:24;95827.56;;;24.91;33.24
24956;BME280;12988;42.710;23.390;2023-01-26T04:05:08;95814.41;;;24.93;33.36
24956;BME280;12988;42.710;23.390;2023-01-26T04:07:52;95809.00;;;24.93;33.00
24956;BME280;12988;42.710;23.390;2023-01-26T04:10:36;95796.69;;;24.89;33.23
24956;BME280;12988;42.710;23.390;2023-01-26T04:13:01;95808.66;;;24.91;33.01
24956;BME280;12988;42.710;23.390;2023-01-26T04:15:48;95798.19;;;24.93;33.14
24956;BME280;12988;42.710;23.390;2023-01-26T04:18:32;95795.91;;;24.92;33.00
24956;BME280;12988;42.710;23.390;2023-01-26T04:21:16;95788.16;;;24.94;32.91
24956;BME280;12988;42.710;23.390;2023-01-26T04:23:52;95783.13;;;24.96;33.14
24956;BME280;12988;42.710;23.390;2023-01-26T04:26:21;95772.69;;;24.94;33.01
24956;BME280;12988;42.710;23.390;2023-01-26T04:28:46;95775.00;;;24.96;33.08
24956;BME280;12988;42.710;23.390;2023-01-26T04:31:12;95775.41;;;24.94;32.96
24956;BME280;12988;42.710;23.390;2023-01-26T04:33:37;95776.56;;;24.93;32.85
24956;BME280;12988;42.710;23.390;2023-01-26T04:36:06;95780.06;;;24.90;32.96
24956;BME280;12988;42.710;23.390;2023-01-26T04:38:32;95778.91;;;24.91;32.69
24956;BME280;12988;42.710;23.390;2023-01-26T04:40:57;95771.97;;;24.90;33.13
24956;BME280;12988;42.710;23.390;2023-01-26T04:43:23;95765.06;;;24.86;33.08
24956;BME280;12988;42.710;23.390;2023-01-26T04:46:04;95773.50;;;24.91;32.99
24956;BME280;12988;42.710;23.390;2023-01-26T04:48:31;95774.28;;;24.92;32.81
24956;BME280;12988;42.710;23.390;2023-01-26T04:50:59;95772.31;;;24.92;33.09
24956;BME280;12988;42.710;23.390;2023-01-26T04:53:25;95768.88;;;24.92;32.82
24956;BME280;12988;42.710;23.390;2023-01-26T04:55:51;95773.50;;;24.91;32.77
24956;BME280;12988;42.710;23.390;2023-01-26T04:58:17;95775.50;;;24.84;30.43
24956;BME280;12988;42.710;23.390;2023-01-26T05:00:43;95787.94;;;24.78;28.52
24956;BME280;12988;42.710;23.390;2023-01-26T05:03:09;95772.22;;;24.66;29.93
24956;BME280;12988;42.710;23.390;2023-01-26T05:05:38;95779.94;;;24.64;31.23
24956;BME280;12988;42.710;23.390;2023-01-26T05:08:04;95784.59;;;24.64;31.16
24956;BME280;12988;42.710;23.390;2023-01-26T05:10:31;95786.53;;;24.63;31.96
24956;BME280;12988;42.710;23.390;2023-01-26T05:12:57;95781.47;;;24.65;31.93
24956;BME280;12988;42.710;23.390;2023-01-26T05:15:23;95766.84;;;24.63;31.64
24956;BME280;12988;42.710;23.390;2023-01-26T05:17:48;95766.81;;;24.66;32.16
24956;BME280;12988;42.710;23.390;2023-01-26T05:20:14;95765.28;;;24.65;32.36
24956;BME280;12988;42.710;23.390;2023-01-26T05:22:40;95764.16;;;24.63;32.15
24956;BME280;12988;42.710;23.390;2023-01-26T05:25:05;95759.91;;;24.62;32.81
24956;BME280;12988;42.710;23.390;2023-01-26T05:27:31;95761.44;;;24.63;32.32
24956;BME280;12988;42.710;23.390;2023-01-26T05:29:56;95752.53;;;24.66;32.52
24956;BME280;12988;42.710;23.390;2023-01-26T05:32:26;95756.44;;;24.61;30.60
24956;BME280;12988;42.710;23.390;2023-01-26T05:34:51;95748.31;;;24.61;32.26
24956;BME280;12988;42.710;23.390;2023-01-26T05:37:17;95755.25;;;24.62;32.15
24956;BME280;12988;42.710;23.390;2023-01-26T05:39:42;95752.22;;;24.57;31.78
24956;BME280;12988;42.710;23.390;2023-01-26T05:42:09;95750.66;;;24.59;31.91
24956;BME280;12988;42.710;23.390;2023-01-26T05:44:35;95747.53;;;24.64;32.10
24956;BME280;12988;42.710;23.390;2023-01-26T05:47:00;95751.41;;;24.63;31.91
24956;BME280;12988;42.710;23.390;2023-01-26T05:49:26;95750.19;;;24.68;32.31
24956;BME280;12988;42.710;23.390;2023-01-26T05:51:51;95752.91;;;24.68;32.41
24956;BME280;12988;42.710;23.390;2023-01-26T05:54:17;95750.56;;;24.70;31.99
24956;BME280;12988;42.710;23.390;2023-01-26T05:56:42;95747.50;;;24.68;32.08
24956;BME280;12988;42.710;23.390;2023-01-26T05:59:07;95753.63;;;24.72;32.08
24956;BME280;12988;42.710;23.390;2023-01-26T06:01:33;95761.72;;;24.75;32.70
24956;BME280;12988;42.710;23.390;2023-01-26T06:03:58;95759.03;;;24.72;30.65
24956;BME280;12988;42.710;23.390;2023-01-26T06:06:24;95762.53;;;24.69;32.30
24956;BME280;12988;42.710;23.390;2023-01-26T06:08:49;95755.59;;;24.68;32.17
24956;BME280;12988;42.710;23.390;2023-01-26T06:11:14;95748.25;;;24.68;32.28
24956;BME280;12988;42.710;23.390;2023-01-26T06:13:40;95759.03;;;24.72;32.56
24956;BME280;12988;42.710;23.390;2023-01-26T06:16:05;95744.00;;;24.71;32.96
24956;BME280;12988;42.710;23.390;2023-01-26T06:18:31;95748.59;;;24.74;32.53
24956;BME280;12988;42.710;23.390;2023-01-26T06:20:59;95748.94;;;24.76;32.62
24956;BME280;12988;42.710;23.390;2023-01-26T06:23:25;95745.06;;;24.77;32.96
24956;BME280;12988;42.710;23.390;2023-01-26T06:25:51;95740.03;;;24.78;33.13
24956;BME280;12988;42.710;23.390;2023-01-26T06:28:17;95737.69;;;24.80;32.55
24956;BME280;12988;42.710;23.390;2023-01-26T06:30:44;95733.47;;;24.79;32.88
24956;BME280;12988;42.710;23.390;2023-01-26T06:33:10;95725.75;;;24.82;33.36
24956;BME280;12988;42.710;23.390;2023-01-26T06:35:35;95729.91;;;24.86;33.28
24956;BME280;12988;42.710;23.390;2023-01-26T06:38:01;95725.28;;;24.86;32.89
24956;BME280;12988;42.710;23.390;2023-01-26T06:40:26;95717.56;;;24.85;32.85
24956;BME280;12988;42.710;23.390;2023-01-26T06:42:52;95724.94;;;24.84;32.94
24956;BME280;12988;42.710;23.390;2023-01-26T06:45:18;95734.16;;;24.87;33.00
24956;BME280;12988;42.710;23.390;2023-01-26T06:47:48;95727.22;;;24.86;33.14
24956;BME280;12988;42.710;23.390;2023-01-26T06:50:17;95732.59;;;24.89;33.30
24956;BME280;12988;42.710;23.390;2023-01-26T06:52:46;95728.00;;;24.86;32.86
24956;BME280;12988;42.710;23.390;2023-01-26T06:55:33;95730.69;;;24.86;33.27
24956;BME280;12988;42.710;23.390;2023-01-26T06:57:59;95728.75;;;24.87;33.07
24956;BME280;12988;42.710;23.390;2023-01-26T07:00:25;95728.00;;;24.86;32.97
24956;BME280;12988;42.710;23.390;2023-01-26T07:02:50;95718.34;;;24.85;33.02
24956;BME280;12988;42.710;23.390;2023-01-26T07:05:15;95725.66;;;24.88;33.49
24956;BME280;12988;42.710;23.390;2023-01-26T07:07:41;95710.97;;;24.89;32.93
24956;BME280;12988;42.710;23.390;2023-01-26T07:10:07;95713.31;;;24.87;33.27
24956;BME280;12988;42.710;23.390;2023-01-26T07:12:43;95710.97;;;24.89;33.21
24956;BME280;12988;42.710;23.390;2023-01-26T07:15:10;95699.38;;;24.89;33.27
24956;BME280;12988;42.710;23.390;2023-01-26T07:17:37;95701.31;;;24.88;33.03
24956;BME280;12988;42.710;23.390;2023-01-26T07:20:03;95700.50;;;24.91;33.27
24956;BME280;12988;42.710;23.390;2023-01-26T07:22:29;95706.63;;;24.95;33.15
24956;BME280;12988;42.710;23.390;2023-01-26T07:24:54;95694.28;;;24.94;33.49
24956;BME280;12988;42.710;23.390;2023-01-26T07:27:20;95704.72;;;24.96;33.17
24956;BME280;12988;42.710;23.390;2023-01-26T07:29:45;95696.63;;;24.92;33.15
24956;BME280;12988;42.710;23.390;2023-01-26T07:32:11;95688.53;;;24.92;33.23
24956;BME280;12988;42.710;23.390;2023-01-26T07:34:37;95705.47;;;24.96;33.32
24956;BME280;12988;42.710;23.390;2023-01-26T07:37:02;95706.25;;;24.97;33.64
24956;BME280;12988;42.710;23.390;2023-01-26T07:39:29;95698.94;;;24.94;33.79
24956;BME280;12988;42.710;23.390;2023-01-26T07:41:55;95701.66;;;24.94;33.75
24956;BME280;12988;42.710;23.390;2023-01-26T07:44:20;95696.19;;;24.97;34.06
24956;BME280;12988;42.710;23.390;2023-01-26T07:46:45;95691.94;;;24.96;34.08
24956;BME280;12988;42.710;23.390;2023-01-26T07:49:11;95686.91;;;24.98;34.16
24956;BME280;12988;42.710;23.390;2023-01-26T07:51:37;95690.03;;;24.97;34.02
24956;BME280;12988;42.710;23.390;2023-01-26T07:54:04;95692.72;;;24.97;34.33
24956;BME280;12988;42.710;23.390;2023-01-26T07:56:29;95693.47;;;24.97;34.49
24956;BME280;12988;42.710;23.390;2023-01-26T07:58:55;95680.41;;;24.92;34.37
24956;BME280;12988;42.710;23.390;2023-01-26T08:01:21;95690.38;;;24.99;34.42
24956;BME280;12988;42.710;23.390;2023-01-26T08:03:49;95686.91;;;24.98;34.43
24956;BME280;12988;42.710;23.390;2023-01-26T08:06:15;95681.13;;;24.96;34.10
24956;BME280;12988;42.710;23.390;2023-01-26T08:08:43;95676.88;;;24.99;34.44
24956;BME280;12988;42.710;23.390;2023-01-26T08:11:09;95671.50;;;24.95;34.34
24956;BME280;12988;42.710;23.390;2023-01-26T08:13:35;95670.75;;;24.95;34.50
24956;BME280;12988;42.710;23.390;2023-01-26T08:16:05;95668.75;;;24.99;34.50
24956;BME280;12988;42.710;23.390;2023-01-26T08:18:33;95666.81;;;24.99;34.67
24956;BME280;12988;42.710;23.390;2023-01-26T08:20:59;95667.53;;;25.03;34.30
24956;BME280;12988;42.710;23.390;2023-01-26T08:23:24;95656.00;;;24.99;34.14
24956;BME280;12988;42.710;23.390;2023-01-26T08:25:50;95667.53;;;25.03;34.61
24956;BME280;12988;42.710;23.390;2023-01-26T08:28:15;95651.72;;;25.02;34.14
24956;BME280;12988;42.710;23.390;2023-01-26T08:30:41;95647.88;;;24.99;34.40
24956;BME280;12988;42.710;23.390;2023-01-26T08:33:06;95653.97;;;25.07;34.32
24956;BME280;12988;42.710;23.390;2023-01-26T08:35:32;95656.63;;;25.10;34.00
24956;BME280;12988;42.710;23.390;2023-01-26T08:37:57;95644.31;;;25.06;34.34
24956;BME280;12988;42.710;23.390;2023-01-26T08:40:23;95638.97;;;25.02;34.37
24956;BME280;12988;42.710;23.390;2023-01-26T08:42:52;95649.69;;;25.09;34.06
24956;BME280;12988;42.710;23.390;2023-01-26T08:45:18;95648.91;;;25.09;34.55
24956;BME280;12988;42.710;23.390;2023-01-26T08:47:43;95644.28;;;25.09;34.28
24956;BME280;12988;42.710;23.390;2023-01-26T08:50:10;95640.41;;;25.10;34.22
24956;BME280;12988;42.710;23.390;2023-01-26T08:52:35;95641.97;;;25.08;34.35
24956;BME280;12988;42.710;23.390;2023-01-26T08:55:01;95646.63;;;25.07;34.33
24956;BME280;12988;42.710;23.390;2023-01-26T08:57:28;95645.09;;;25.06;34.32
24956;BME280;12988;42.710;23.390;2023-01-26T08:59:54;95649.72;;;25.06;34.23
24956;BME280;12988;42.710;23.390;2023-01-26T09:02:19;95645.50;;;25.05;33.99
24956;BME280;12988;42.710;23.390;2023-01-26T09:04:44;95647.03;;;25.06;33.99
24956;BME280;12988;42.710;23.390;2023-01-26T09:07:10;95652.75;;;25.11;33.99
24956;BME280;12988;42.710;23.390;2023-01-26T09:09:35;95652.75;;;25.11;34.06
24956;BME280;12988;42.710;23.390;2023-01-26T09:12:01;95647.00;;;25.09;34.23
24956;BME280;12988;42.710;23.390;2023-01-26T09:14:26;95647.38;;;25.08;33.70
24956;BME280;12988;42.710;23.390;2023-01-26T09:16:55;95643.50;;;25.09;33.88
24956;BME280;12988;42.710;23.390;2023-01-26T09:19:20;95636.16;;;25.09;33.97
24956;BME280;12988;42.710;23.390;2023-01-26T09:21:45;95625.34;;;25.09;33.89
24956;BME280;12988;42.710;23.390;2023-01-26T09:24:11;95627.59;;;25.14;33.92
24956;BME280;12988;42.710;23.390;2023-01-26T09:26:44;95626.84;;;25.14;33.58
24956;BME280;12988;42.710;23.390;2023-01-26T09:29:09;95619.53;;;25.11;34.15
24956;BME280;12988;42.710;23.390;2023-01-26T09:31:35;95622.22;;;25.11;33.98
24956;BME280;12988;42.710;23.390;2023-01-26T09:34:00;95609.47;;;25.11;33.89
24956;BME280;12988;42.710;23.390;2023-01-26T09:36:26;95605.59;;;25.12;34.25
24956;BME280;12988;42.710;23.390;2023-01-26T09:38:51;95602.91;;;25.12;33.82
24956;BME280;12988;42.710;23.390;2023-01-26T09:41:39;95598.28;;;25.13;33.70
24956;BME280;12988;42.710;23.390;2023-01-26T09:44:17;95607.19;;;25.10;33.69
24956;BME280;12988;42.710;23.390;2023-01-26T09:47:08;95610.31;;;25.08;34.02
24956;BME280;12988;42.710;23.390;2023-01-26T09:49:53;95609.16;;;25.06;34.10
24956;BME280;12988;42.710;23.390;2023-01-26T09:52:33;95604.47;;;25.10;33.90
24956;BME280;12988;42.710;23.390;2023-01-26T09:55:03;95591.03;;;25.06;33.81
24956;BME280;12988;42.710;23.390;2023-01-26T09:57:42;95578.97;;;25.11;33.68
24956;BME280;12988;42.710;23.390;2023-01-26T10:00:17;95585.16;;;25.11;33.84
24956;BME280;12988;42.710;23.390;2023-01-26T10:05:57;95585.97;;;25.08;33.72
24956;BME280;12988;42.710;23.390;2023-01-26T10:08:24;95592.59;;;25.04;33.70
24956;BME280;12988;42.710;23.390;2023-01-26T10:10:58;95588.75;;;25.01;34.11
24956;BME280;12988;42.710;23.390;2023-01-26T10:13:25;95581.81;;;25.00;33.80
24956;BME280;12988;42.710;23.390;2023-01-26T10:15:57;95589.50;;;25.05;33.99
24956;BME280;12988;42.710;23.390;2023-01-26T10:21:11;95576.94;;;24.92;30.98
24956;BME280;12988;42.710;23.390;2023-01-26T10:23:47;95555.00;;;24.86;33.39
24956;BME280;12988;42.710;23.390;2023-01-26T10:26:18;95556.56;;;24.84;33.66
24956;BME280;12988;42.710;23.390;2023-01-26T10:28:45;95546.97;;;24.79;34.15
24956;BME280;12988;42.710;23.390;2023-01-26T10:31:20;95534.63;;;24.78;34.52
24956;BME280;12988;42.710;23.390;2023-01-26T10:34:00;95529.66;;;24.77;34.99
24956;BME280;12988;42.710;23.390;2023-01-26T10:36:31;95528.06;;;24.79;34.52
24956;BME280;12988;42.710;23.390;2023-01-26T10:39:08;95529.66;;;24.77;34.58
24956;BME280;12988;42.710;23.390;2023-01-26T10:41:34;95509.59;;;24.75;35.17
24956;BME280;12988;42.710;23.390;2023-01-26T10:46:39;95497.31;;;24.70;34.91
24956;BME280;12988;42.710;23.390;2023-01-26T10:51:35;95483.75;;;24.74;35.17
24956;BME280;12988;42.710;23.390;2023-01-26T10:54:24;95469.53;;;24.70;34.78
24956;BME280;12988;42.710;23.390;2023-01-26T10:56:51;95471.06;;;24.71;35.17
24956;BME280;12988;42.710;23.390;2023-01-26T11:02:35;95462.25;;;24.67;35.29
24956;BME280;12988;42.710;23.390;2023-01-26T11:07:37;95446.03;;;24.67;35.22
24956;BME280;12988;42.710;23.390;2023-01-26T11:10:28;95454.13;;;24.67;35.24
24956;BME280;12988;42.710;23.390;2023-01-26T11:13:14;95439.91;;;24.63;35.46
24956;BME280;12988;42.710;23.390;2023-01-26T11:24:24;95416.41;;;24.60;34.98
24956;BME280;12988;42.710;23.390;2023-01-26T11:29:40;95404.06;;;24.59;35.05
24956;BME280;12988;42.710;23.390;2023-01-26T11:35:29;95392.97;;;24.53;35.06
24956;BME280;12988;42.710;23.390;2023-01-26T11:46:18;95379.41;;;24.57;34.75
24956;BME280;12988;42.710;23.390;2023-01-26T11:51:15;95377.50;;;24.54;34.95
24956;BME280;12988;42.710;23.390;2023-01-26T11:56:48;95386.78;;;24.53;34.71
24956;BME280;12988;42.710;23.390;2023-01-26T11:59:21;95388.75;;;24.52;35.22
24956;BME280;12988;42.710;23.390;2023-01-26T12:02:02;95386.78;;;24.53;35.37
24956;BME280;12988;42.710;23.390;2023-01-26T12:04:31;95384.09;;;24.53;35.24
24956;BME280;12988;42.710;23.390;2023-01-26T12:07:19;95365.63;;;24.48;35.11
24956;BME280;12988;42.710;23.390;2023-01-26T12:09:47;95361.75;;;24.49;35.51
24956;BME280;12988;42.710;23.390;2023-01-26T12:12:35;95365.59;;;24.51;35.42
24956;BME280;12988;42.710;23.390;2023-01-26T12:15:11;95361.31;;;24.50;35.60
24956;BME280;12988;42.710;23.390;2023-01-26T12:18:11;95357.16;;;24.46;35.46
24956;BME280;12988;42.710;23.390;2023-01-26T12:20:43;95346.72;;;24.48;35.18
24956;BME280;12988;42.710;23.390;2023-01-26T12:23:15;95337.84;;;24.47;35.49
24956;BME280;12988;42.710;23.390;2023-01-26T12:25:49;95344.00;;;24.48;35.30
24956;BME280;12988;42.710;23.390;2023-01-26T12:28:20;95334.38;;;24.47;35.15
24956;BME280;12988;42.710;23.390;2023-01-26T12:33:14;95317.13;;;24.41;35.15
24956;BME280;12988;42.710;23.390;2023-01-26T12:46:32;95293.97;;;24.40;35.31
24956;BME280;12988;42.710;23.390;2023-01-26T12:49:19;95307.84;;;24.42;35.03
24956;BME280;12988;42.710;23.390;2023-01-26T12:51:54;95304.03;;;24.39;35.04
24956;BME280;12988;42.710;23.390;2023-01-26T12:54:29;95293.69;;;24.34;35.20
24956;BME280;12988;42.710;23.390;2023-01-26T12:56:59;95305.19;;;24.38;35.01
24956;BME280;12988;42.710;23.390;2023-01-26T13:01:51;95295.22;;;24.35;34.74
24956;BME280;12988;42.710;23.390;2023-01-26T13:04:17;95283.25;;;24.36;34.88
24956;BME280;12988;42.710;23.390;2023-01-26T13:06:43;95287.13;;;24.35;34.64
24956;BME280;12988;42.710;23.390;2023-01-26T13:11:54;95295.63;;;24.34;34.51
24956;BME280;12988;42.710;23.390;2023-01-26T13:14:36;95292.91;;;24.34;34.69
24956;BME280;12988;42.710;23.390;2023-01-26T13:24:49;95281.81;;;24.28;35.78
24956;BME280;12988;42.710;23.390;2023-01-26T13:30:43;95277.94;;;24.29;36.11
24956;BME280;12988;42.710;23.390;2023-01-26T13:35:38;95277.22;;;24.25;35.80
24956;BME280;12988;42.710;23.390;2023-01-26T13:41:00;95267.22;;;24.26;35.68
24956;BME280;12988;42.710;23.390;2023-01-26T13:46:12;95262.63;;;24.23;36.13
24956;BME280;12988;42.710;23.390;2023-01-26T13:48:43;95269.13;;;24.25;35.80
24956;BME280;12988;42.710;23.390;2023-01-26T13:54:04;95259.09;;;24.26;35.99
24956;BME280;12988;42.710;23.390;2023-01-26T13:59:13;95257.22;;;24.23;36.30
24956;BME280;12988;42.710;23.390;2023-01-26T14:01:53;95249.53;;;24.21;36.64
24956;BME280;12988;42.710;23.390;2023-01-26T14:04:21;95244.13;;;24.21;35.84
24956;BME280;12988;42.710;23.390;2023-01-26T14:07:01;95236.44;;;24.20;35.81
24956;BME280;12988;42.710;23.390;2023-01-26T14:09:29;95235.63;;;24.23;36.14
24956;BME280;12988;42.710;23.390;2023-01-26T14:11:59;95230.63;;;24.21;36.47
24956;BME280;12988;42.710;23.390;2023-01-26T14:14:27;95229.09;;;24.20;36.21
24956;BME280;12988;42.710;23.390;2023-01-26T14:16:53;95238.69;;;24.25;36.49
24956;BME280;12988;42.710;23.390;2023-01-26T14:19:21;95227.94;;;24.21;36.40
24956;BME280;12988;42.710;23.390;2023-01-26T14:21:55;95228.28;;;24.23;36.74
24956;BME280;12988;42.710;23.390;2023-01-26T14:26:54;95232.16;;;24.22;36.34
24956;BME280;12988;42.710;23.390;2023-01-26T14:29:27;95229.47;;;24.22;36.39
24956;BME280;12988;42.710;23.390;2023-01-26T14:31:58;95222.19;;;24.19;36.28
24956;BME280;12988;42.710;23.390;2023-01-26T14:34:26;95228.75;;;24.18;36.84
24956;BME280;12988;42.710;23.390;2023-01-26T14:37:27;95221.00;;;24.20;36.67
24956;BME280;12988;42.710;23.390;2023-01-26T14:40:20;95224.47;;;24.21;37.13
24956;BME280;12988;42.710;23.390;2023-01-26T14:42:49;95220.22;;;24.20;36.93
24956;BME280;12988;42.710;23.390;2023-01-26T14:45:17;95214.47;;;24.18;36.71